This is the latest recevied weather packets stored in our database for station/object AA4XD. If no packets are shown the sender has not sent any weather packets the latest 10 day(s).
| Time | Temp. | Humidity | Pressure | Rain* | Wind** | Luminosity | Snow |
|---|---|---|---|---|---|---|---|
| 1777869883 | 15° C | 81% | 1017.5 hPa | 0 mm | - | 0 W/m² | - |
| 1777869580 | 15° C | 80% | 1017.7 hPa | 0 mm | - | 0 W/m² | - |
| 1777869277 | 15° C | 80% | 1017.6 hPa | 0 mm | - | 0 W/m² | - |
| 1777868975 | 15° C | 80% | 1017.6 hPa | 0 mm | - | 0 W/m² | - |
| 1777868671 | 15.56° C | 79% | 1017.4 hPa | 0 mm | - | 0 W/m² | - |
| 1777868368 | 15.56° C | 79% | 1017.6 hPa | 0 mm | - | 0 W/m² | - |
| 1777868064 | 15.56° C | 79% | 1017.7 hPa | 0 mm | - | 0 W/m² | - |
| 1777867760 | 15.56° C | 78% | 1017.7 hPa | 0 mm | - | 0 W/m² | - |
| 1777867458 | 15.56° C | 78% | 1017.8 hPa | 0 mm | - | 0 W/m² | - |
| 1777867154 | 15.56° C | 77% | 1017.6 hPa | 0 mm | - | 0 W/m² | - |
| 1777866548 | 15.56° C | 78% | 1017.6 hPa | 0 mm | - | 0 W/m² | - |
| 1777847456 | 25.56° C | 33% | 1014.8 hPa | 0 mm | - | 66 W/m² | - |
| 1777846852 | 25.56° C | 34% | 1014.9 hPa | 0 mm | - | 96 W/m² | - |
| 1777846550 | 26.11° C | 32% | 1015.1 hPa | 0 mm | - | 71 W/m² | - |
| 1777844733 | 27.22° C | 32% | 1015.1 hPa | 0 mm | - | 110 W/m² | - |
| 1777844127 | 28.33° C | 31% | 1015.2 hPa | 0 mm | - | 419 W/m² | - |
| 1777841094 | 27.78° C | 34% | 1015.4 hPa | 0 mm | - | 627 W/m² | - |
| 1777839581 | 27.78° C | 36% | 1015.4 hPa | 0 mm | - | 722 W/m² | - |
| 1777839278 | 27.78° C | 33% | 1015.5 hPa | 0 mm | - | 739 W/m² | - |
| 1777838672 | 27.22° C | 36% | 1015.6 hPa | 0 mm | - | 769 W/m² | - |
| 1777835332 | 26.67° C | 37% | 1016.4 hPa | 0 mm | - | 609 W/m² | - |
| 1777832609 | 25.56° C | 38% | 1017.2 hPa | 0 mm | - | 672 W/m² | - |
| 1777832305 | 25.56° C | 38% | 1017.4 hPa | 0 mm | - | 1007 W/m² | - |
| 1777832002 | 26.11° C | 39% | 1017.4 hPa | 0 mm | - | 1042 W/m² | - |
| 1777831397 | 25.56° C | 38% | 1017.4 hPa | 0 mm | - | 1043 W/m² | - |
* Rain latest hour (hover to see other rain measurements)
** Current wind speed in m/s (hover to see current wind gust speed)